createdAt,value
2018-11-11T00:02:13.581Z,99975.34
2018-11-11T00:04:43.628Z,99979.05
2018-11-11T00:07:13.883Z,99973.56
2018-11-11T00:09:44.022Z,99974.17
2018-11-11T00:12:14.697Z,99972.59
2018-11-11T00:14:44.686Z,99976.38
2018-11-11T00:17:14.732Z,99978.05
2018-11-11T00:19:44.999Z,99973.39
2018-11-11T00:22:14.985Z,99979.56
2018-11-11T00:24:45.067Z,99977.81
2018-11-11T00:27:15.310Z,99981.06
2018-11-11T00:29:45.385Z,99978.78
2018-11-11T00:32:15.725Z,99979.02
2018-11-11T00:34:48.484Z,99978.92
2018-11-11T00:37:18.756Z,99985.10
2018-11-11T00:39:48.782Z,99984.13
2018-11-11T00:42:18.870Z,99981.00
2018-11-11T00:44:49.596Z,99985.16
2018-11-11T00:47:19.398Z,99984.15
2018-11-11T00:49:49.516Z,99954.80
2018-11-11T00:52:19.632Z,99988.05
2018-11-11T00:54:49.729Z,99991.03
2018-11-11T00:57:19.902Z,99985.59
2018-11-11T00:59:49.972Z,99986.75
2018-11-11T01:02:20.076Z,99983.88
2018-11-11T01:04:50.241Z,99984.91
2018-11-11T01:07:20.517Z,99989.30
2018-11-11T01:09:50.784Z,99983.01
2018-11-11T01:12:21.151Z,99977.63
2018-11-11T01:14:51.575Z,99974.73
2018-11-11T01:17:21.373Z,99972.21
2018-11-11T01:19:51.632Z,99972.97
2018-11-11T01:22:21.901Z,99976.22
2018-11-11T01:24:51.954Z,99978.44
2018-11-11T01:27:22.105Z,99980.17
2018-11-11T01:29:52.166Z,99975.88
2018-11-11T01:32:22.401Z,99989.50
2018-11-11T01:34:52.718Z,99984.39
2018-11-11T01:37:24.804Z,99976.14
2018-11-11T01:39:54.893Z,99986.52
2018-11-11T01:42:25.036Z,99990.12
2018-11-11T01:44:55.190Z,99988.80
2018-11-11T01:47:25.414Z,99987.13
2018-11-11T01:49:55.623Z,99988.45
2018-11-11T01:52:25.694Z,99980.81
2018-11-11T01:54:55.948Z,99973.06
2018-11-11T01:57:26.194Z,99936.48
2018-11-11T01:59:56.730Z,99964.73
2018-11-11T02:02:26.984Z,99962.45
2018-11-11T02:04:57.290Z,99965.08
2018-11-11T02:07:27.234Z,99959.38
2018-11-11T02:09:57.918Z,99965.08
2018-11-11T02:12:28.534Z,99958.97
2018-11-11T02:14:58.820Z,99831.66
2018-11-11T02:17:29.130Z,99951.30
2018-11-11T02:19:59.657Z,99951.05
2018-11-11T02:22:29.965Z,99950.11
2018-11-11T02:25:00.254Z,99937.97
2018-11-11T02:27:30.541Z,99954.20
2018-11-11T02:30:00.808Z,99953.16
2018-11-11T02:32:31.068Z,99942.63
2018-11-11T02:35:00.833Z,99948.23
2018-11-11T02:37:31.136Z,99945.63
2018-11-11T02:40:01.602Z,99947.71
2018-11-11T02:42:31.890Z,99952.73
2018-11-11T02:45:02.194Z,99957.27
2018-11-11T02:47:32.515Z,99959.64
2018-11-11T02:50:02.825Z,99954.76
2018-11-11T02:52:33.075Z,99948.33
2018-11-11T02:55:03.346Z,99931.33
2018-11-11T02:57:33.577Z,99945.08
2018-11-11T03:00:03.956Z,99943.67
2018-11-11T03:02:34.234Z,99941.95
2018-11-11T03:05:04.416Z,99943.76
2018-11-11T03:07:34.653Z,99953.23
2018-11-11T03:10:04.958Z,99950.38
2018-11-11T03:12:35.254Z,99944.73
2018-11-11T03:15:05.410Z,99941.74
2018-11-11T03:17:35.707Z,99943.76
2018-11-11T03:20:06.438Z,99944.39
2018-11-11T03:22:36.759Z,99942.88
2018-11-11T03:25:08.762Z,99946.74
2018-11-11T03:27:39.013Z,99955.45
2018-11-11T03:30:11.059Z,99952.70
2018-11-11T03:32:41.377Z,99952.30
2018-11-11T03:35:13.122Z,99946.95
2018-11-11T03:37:43.979Z,99954.92
2018-11-11T03:40:16.964Z,99944.20
2018-11-11T03:42:47.467Z,99949.55
2018-11-11T03:45:18.899Z,99954.73
2018-11-11T03:47:50.214Z,99952.44
2018-11-11T03:50:20.390Z,99947.36
2018-11-11T03:52:50.492Z,99962.09
2018-11-11T03:55:20.667Z,99961.21
2018-11-11T03:57:50.709Z,99963.77
2018-11-11T04:00:21.254Z,99964.46
2018-11-11T04:02:57.244Z,99967.71
2018-11-11T04:05:27.428Z,99966.95
2018-11-11T04:07:57.457Z,99974.84
2018-11-11T04:10:27.724Z,99955.52
2018-11-11T04:12:57.867Z,99965.86
2018-11-11T04:15:27.892Z,99965.98
2018-11-11T04:17:58.010Z,99963.00
2018-11-11T04:20:28.097Z,99962.53
2018-11-11T04:22:58.247Z,99968.77
2018-11-11T04:25:28.298Z,99966.59
2018-11-11T04:27:58.422Z,99962.37
2018-11-11T04:30:28.542Z,99966.48
2018-11-11T04:32:58.572Z,99959.12
2018-11-11T04:35:28.805Z,99968.23
2018-11-11T04:37:58.869Z,99970.42
2018-11-11T04:40:28.985Z,99966.83
2018-11-11T04:42:59.113Z,99977.09
2018-11-11T04:45:29.149Z,99967.88
2018-11-11T04:47:59.301Z,99974.38
2018-11-11T04:50:29.399Z,99969.20
2018-11-11T04:52:59.472Z,99969.66
2018-11-11T04:55:29.570Z,99974.84
2018-11-11T04:57:59.662Z,99978.23
2018-11-11T05:00:29.841Z,99968.77
2018-11-11T05:03:00.015Z,99973.67
2018-11-11T05:05:30.318Z,99972.71
2018-11-11T05:08:00.341Z,99968.77
2018-11-11T05:10:30.437Z,99973.94
2018-11-11T05:13:00.257Z,99967.98
2018-11-11T05:15:30.313Z,99970.73
2018-11-11T05:18:00.830Z,99984.03
2018-11-11T05:20:30.877Z,99986.31
2018-11-11T05:23:01.057Z,99993.25
2018-11-11T05:25:31.185Z,99992.90
2018-11-11T05:28:01.252Z,99993.16
2018-11-11T05:30:31.460Z,99985.73
2018-11-11T05:33:01.477Z,99990.62
2018-11-11T05:35:31.595Z,100003.34
2018-11-11T05:38:01.687Z,99995.91
2018-11-11T05:40:31.753Z,99979.03
2018-11-11T05:43:01.965Z,99998.34
2018-11-11T05:45:32.004Z,100001.49
2018-11-11T05:48:02.092Z,100006.41
2018-11-11T05:50:32.577Z,100003.53
2018-11-11T05:53:02.657Z,100003.16
2018-11-11T05:55:33.301Z,100007.46
2018-11-11T05:58:03.669Z,100010.00
2018-11-11T06:00:33.908Z,100007.74
2018-11-11T06:03:04.145Z,100006.66
2018-11-11T06:05:34.184Z,100008.94
2018-11-11T06:08:04.329Z,100010.02
2018-11-11T06:10:34.384Z,100010.73
2018-11-11T06:13:04.483Z,100010.70
2018-11-11T06:15:34.597Z,100017.28
2018-11-11T06:18:04.690Z,100024.59
2018-11-11T06:20:34.517Z,100024.48
2018-11-11T06:23:04.569Z,100024.33
2018-11-11T06:25:34.704Z,100029.22
2018-11-11T06:28:04.833Z,100026.33
2018-11-11T06:30:34.985Z,100033.98
2018-11-11T06:33:05.192Z,100037.56
2018-11-11T06:35:35.236Z,100040.28
2018-11-11T06:38:05.365Z,100040.14
2018-11-11T06:40:35.460Z,100043.13
2018-11-11T06:43:05.483Z,100039.16
2018-11-11T06:45:35.676Z,100047.93
2018-11-11T06:48:06.016Z,100041.88
2018-11-11T06:50:36.109Z,100041.11
2018-11-11T06:53:06.705Z,100035.66
2018-11-11T06:55:36.493Z,100035.52
2018-11-11T06:58:06.928Z,100038.52
2018-11-11T07:00:37.136Z,100037.63
2018-11-11T07:03:18.001Z,100039.17
2018-11-11T07:05:48.113Z,100035.50
2018-11-11T07:08:18.240Z,100040.66
2018-11-11T07:10:48.342Z,100039.77
2018-11-11T07:13:18.465Z,100039.41
2018-11-11T07:15:48.279Z,100039.63
2018-11-11T07:18:18.044Z,100037.84
2018-11-11T07:20:48.346Z,100041.07
2018-11-11T07:23:18.381Z,100041.00
2018-11-11T07:25:48.510Z,100028.44
2018-11-11T07:28:18.646Z,100029.13
2018-11-11T07:30:48.423Z,100021.58
2018-11-11T07:33:18.785Z,100025.62
2018-11-11T07:35:48.932Z,100033.61
2018-11-11T07:38:19.022Z,100038.31
2018-11-11T07:40:48.831Z,100038.40
2018-11-11T07:43:18.602Z,100045.17
2018-11-11T07:45:48.832Z,100047.61
2018-11-11T07:48:18.799Z,100033.85
2018-11-11T07:50:48.623Z,100031.96
2018-11-11T07:53:18.425Z,100035.84
2018-11-11T07:55:48.198Z,100033.80
2018-11-11T07:58:18.402Z,100029.55
2018-11-11T08:00:48.462Z,100034.41
2018-11-11T08:03:18.500Z,100040.28
2018-11-11T08:05:48.333Z,100040.67
2018-11-11T08:08:18.092Z,100046.70
2018-11-11T08:10:58.764Z,100051.55
2018-11-11T08:13:28.765Z,100053.39
2018-11-11T08:15:58.763Z,100061.36
2018-11-11T08:18:28.639Z,100062.38
2018-11-11T08:20:58.472Z,100061.75
2018-11-11T08:23:28.314Z,100063.44
2018-11-11T08:25:58.121Z,100063.16
2018-11-11T08:28:28.314Z,100069.16
2018-11-11T08:30:58.102Z,100070.17
2018-11-11T08:33:28.348Z,100075.33
2018-11-11T08:35:58.146Z,100075.18
2018-11-11T08:38:27.941Z,100073.20
2018-11-11T08:40:57.978Z,100076.53
2018-11-11T08:43:27.810Z,100081.19
2018-11-11T08:45:57.669Z,100084.53
2018-11-11T08:48:27.730Z,100087.25
2018-11-11T08:50:57.730Z,100094.91
2018-11-11T08:53:27.709Z,100082.02
2018-11-11T08:55:57.531Z,100089.01
2018-11-11T08:58:27.684Z,100099.32
2018-11-11T09:00:57.746Z,100098.17
2018-11-11T09:03:27.727Z,100102.34
2018-11-11T09:05:57.629Z,100095.88
2018-11-11T09:08:27.381Z,100092.08
2018-11-11T09:10:57.572Z,100103.38
2018-11-11T09:13:27.435Z,100102.41
2018-11-11T09:15:57.335Z,100099.91
2018-11-11T09:18:27.301Z,100107.56
2018-11-11T09:20:57.330Z,100105.09
2018-11-11T09:23:27.370Z,100112.73
2018-11-11T09:25:57.254Z,100100.47
2018-11-11T09:28:27.224Z,100093.70
2018-11-11T09:30:57.102Z,100093.41
2018-11-11T09:33:26.991Z,100095.73
2018-11-11T09:35:57.252Z,100104.38
2018-11-11T09:38:27.421Z,100111.50
2018-11-11T09:40:57.332Z,100119.33
2018-11-11T09:43:27.189Z,100127.31
2018-11-11T09:45:57.030Z,100123.47
2018-11-11T09:48:26.905Z,100123.14
2018-11-11T09:50:56.693Z,100124.80
2018-11-11T09:53:26.954Z,100122.14
2018-11-11T09:55:56.837Z,100125.47
2018-11-11T09:58:26.901Z,100126.98
2018-11-11T10:00:57.011Z,100114.50
2018-11-11T10:03:33.981Z,100112.16
2018-11-11T10:07:09.073Z,100111.16
2018-11-11T10:11:49.769Z,100109.52
2018-11-11T10:14:25.287Z,100105.64
2018-11-11T10:17:00.125Z,100099.95
2018-11-11T10:20:37.107Z,100097.77
2018-11-11T10:23:20.442Z,100091.77
2018-11-11T10:26:26.357Z,100097.09
2018-11-11T10:29:02.251Z,100116.05
2018-11-11T10:32:03.189Z,100120.73
2018-11-11T10:34:38.900Z,100114.53
2018-11-11T10:37:13.144Z,100111.83
2018-11-11T10:39:50.762Z,100118.77
2018-11-11T10:42:25.557Z,100110.77
2018-11-11T10:45:06.406Z,100122.83
2018-11-11T10:47:41.795Z,100121.09
2018-11-11T10:50:29.317Z,100127.12
2018-11-11T10:52:59.135Z,100123.15
2018-11-11T10:55:29.222Z,100116.68
2018-11-11T10:57:59.054Z,100119.63
2018-11-11T11:00:32.982Z,100118.75
2018-11-11T11:03:03.236Z,100121.77
2018-11-11T11:05:33.886Z,100121.09
2018-11-11T11:08:03.725Z,100124.09
2018-11-11T11:10:33.615Z,100131.05
2018-11-11T11:13:03.571Z,100137.69
2018-11-11T11:15:33.425Z,100146.48
2018-11-11T11:18:03.408Z,100145.42
2018-11-11T11:20:33.316Z,100145.42
2018-11-11T11:23:03.253Z,100148.63
2018-11-11T11:25:33.621Z,100149.37
2018-11-11T11:28:03.714Z,100143.77
2018-11-11T11:30:33.738Z,100143.94
2018-11-11T11:33:03.626Z,100145.58
2018-11-11T11:35:33.534Z,100140.83
2018-11-11T11:38:03.759Z,100137.12
2018-11-11T11:40:33.741Z,100136.91
2018-11-11T11:43:03.760Z,100140.20
2018-11-11T11:45:33.711Z,100128.69
2018-11-11T11:48:03.546Z,100129.91
2018-11-11T11:50:33.644Z,100128.25
2018-11-11T11:53:03.954Z,100132.25
2018-11-11T11:55:34.050Z,100128.31
2018-11-11T11:58:13.631Z,100133.99
2018-11-11T12:00:43.966Z,100140.66
2018-11-11T12:03:14.390Z,100144.83
2018-11-11T12:05:44.686Z,100160.16
2018-11-11T12:08:14.621Z,100152.54
2018-11-11T12:10:44.540Z,100145.36
2018-11-11T12:13:15.565Z,100148.70
2018-11-11T12:15:45.699Z,100146.06
2018-11-11T12:18:17.496Z,100137.31
2018-11-11T12:20:47.482Z,100126.70
2018-11-11T12:23:17.463Z,100136.52
2018-11-11T12:25:47.521Z,100144.24
2018-11-11T12:28:17.490Z,100185.59
2018-11-11T12:30:47.427Z,100177.41
2018-11-11T12:33:17.558Z,100179.06
2018-11-11T12:35:47.508Z,100188.74
2018-11-11T12:38:17.416Z,100181.09
2018-11-11T12:40:47.279Z,100166.75
2018-11-11T12:43:17.327Z,100159.41
2018-11-11T12:45:47.762Z,100169.06
2018-11-11T12:48:17.830Z,100187.42
2018-11-11T12:50:47.887Z,100204.77
2018-11-11T12:53:17.789Z,100206.30
2018-11-11T12:55:47.654Z,100185.48
2018-11-11T12:58:17.590Z,100174.02
2018-11-11T13:00:47.459Z,100186.32
2018-11-11T13:03:17.408Z,100196.51
2018-11-11T13:05:47.485Z,100197.99
2018-11-11T13:08:17.323Z,100194.52
2018-11-11T13:10:47.198Z,100188.69
2018-11-11T13:13:17.054Z,100187.18
2018-11-11T13:15:47.182Z,100182.20
2018-11-11T13:18:17.222Z,100188.69
2018-11-11T13:20:47.113Z,100180.70
2018-11-11T13:23:17.141Z,100173.86
2018-11-11T13:25:47.044Z,100178.86
2018-11-11T13:28:17.312Z,100202.52
2018-11-11T13:30:47.260Z,100209.49
2018-11-11T13:33:17.050Z,100202.00
2018-11-11T13:35:47.608Z,100207.33
2018-11-11T13:38:17.494Z,100225.18
2018-11-11T13:40:47.971Z,100227.50
2018-11-11T13:43:17.906Z,100217.52
2018-11-11T13:45:47.980Z,100218.85
2018-11-11T13:48:17.837Z,100223.51
2018-11-11T13:50:47.678Z,100221.48
2018-11-11T13:53:17.662Z,100231.83
2018-11-11T13:55:47.792Z,100250.14
2018-11-11T13:58:17.901Z,100257.79
2018-11-11T14:00:47.779Z,100275.41
2018-11-11T14:03:17.866Z,100276.34
2018-11-11T14:05:50.947Z,100274.30
2018-11-11T14:08:20.817Z,100265.59
2018-11-11T14:10:50.924Z,100265.41
2018-11-11T14:13:20.753Z,100255.90
2018-11-11T14:15:50.694Z,100274.25
2018-11-11T14:18:20.697Z,100271.62
2018-11-11T14:20:50.672Z,100288.31
2018-11-11T14:23:20.606Z,100271.55
2018-11-11T14:25:50.445Z,100281.06
2018-11-11T14:28:20.560Z,100280.73
2018-11-11T14:30:50.469Z,100291.73
2018-11-11T14:33:20.309Z,100271.25
2018-11-11T14:35:50.464Z,100266.11
2018-11-11T14:38:20.339Z,100255.75
2018-11-11T14:40:50.675Z,100250.92
2018-11-11T14:43:20.772Z,100247.39
2018-11-11T14:45:50.616Z,100228.37
2018-11-11T14:48:20.532Z,100233.37
2018-11-11T14:50:50.364Z,100248.32
2018-11-11T14:53:20.309Z,100265.59
2018-11-11T14:55:50.184Z,100276.62
2018-11-11T14:58:19.994Z,100275.30
2018-11-11T15:00:50.161Z,100261.52
2018-11-11T15:03:20.697Z,100262.02
2018-11-11T15:05:50.768Z,100280.84
2018-11-11T15:08:21.215Z,100287.87
2018-11-11T15:10:52.073Z,100291.73
2018-11-11T15:13:21.910Z,100291.77
2018-11-11T15:15:51.994Z,100305.73
2018-11-11T15:18:22.154Z,100292.08
2018-11-11T15:20:52.144Z,100299.55
2018-11-11T15:23:22.362Z,100293.56
2018-11-11T15:25:52.394Z,100300.88
2018-11-11T15:28:22.307Z,100296.41
2018-11-11T15:30:52.310Z,100295.88
2018-11-11T15:33:22.307Z,100306.38
2018-11-11T15:35:52.440Z,100303.86
2018-11-11T15:38:22.557Z,100308.18
2018-11-11T15:40:52.497Z,100316.34
2018-11-11T15:43:22.444Z,100319.01
2018-11-11T15:45:52.307Z,100322.61
2018-11-11T15:48:22.312Z,100336.41
2018-11-11T15:50:52.282Z,100336.20
2018-11-11T15:53:22.242Z,100334.20
2018-11-11T15:55:52.239Z,100335.69
2018-11-11T15:58:22.162Z,100348.97
2018-11-11T16:00:52.137Z,100343.96
2018-11-11T16:03:22.129Z,100351.41
2018-11-11T16:05:52.285Z,100354.70
2018-11-11T16:08:22.180Z,100368.52
2018-11-11T16:10:52.654Z,100374.59
2018-11-11T16:13:35.235Z,100370.56
2018-11-11T16:16:05.313Z,100377.67
2018-11-11T16:18:35.311Z,100381.95
2018-11-11T16:21:05.577Z,100382.69
2018-11-11T16:23:35.744Z,100374.36
2018-11-11T16:26:05.839Z,100379.67
2018-11-11T16:28:35.890Z,100390.27
2018-11-11T16:31:06.397Z,100395.38
2018-11-11T16:33:36.298Z,100392.21
2018-11-11T16:36:07.168Z,100392.86
2018-11-11T16:38:37.209Z,100397.60
2018-11-11T16:41:07.334Z,100390.42
2018-11-11T16:43:37.371Z,100396.52
2018-11-11T16:46:07.955Z,100399.00
2018-11-11T16:48:38.399Z,100391.35
2018-11-11T16:51:08.444Z,100395.98
2018-11-11T16:53:39.185Z,100397.44
2018-11-11T16:56:09.591Z,100393.59
2018-11-11T16:58:39.950Z,100397.06
2018-11-11T17:01:10.738Z,100408.67
2018-11-11T17:03:41.411Z,100402.88
2018-11-11T17:06:12.873Z,100406.36
2018-11-11T17:08:43.096Z,100404.55
2018-11-11T17:11:14.203Z,100406.83
2018-11-11T17:13:45.254Z,100400.20
2018-11-11T17:16:16.105Z,100399.48
2018-11-11T17:18:47.399Z,100397.23
2018-11-11T17:21:18.867Z,100396.20
2018-11-11T17:23:50.676Z,100393.34
2018-11-11T17:26:22.245Z,100401.94
2018-11-11T17:28:53.223Z,100396.91
2018-11-11T17:31:24.549Z,100399.93
2018-11-11T17:33:55.962Z,100403.91
2018-11-11T17:36:27.981Z,100412.73
2018-11-11T17:38:59.529Z,100421.34
2018-11-11T17:41:31.946Z,100413.64
2018-11-11T17:44:08.061Z,100418.84
2018-11-11T17:46:39.803Z,100429.41
2018-11-11T17:49:11.269Z,100446.76
2018-11-11T17:51:44.065Z,100449.12
2018-11-11T17:54:16.525Z,100464.63
2018-11-11T17:56:48.702Z,100471.66
2018-11-11T17:59:20.483Z,100468.89
2018-11-11T18:01:52.799Z,100470.92
2018-11-11T18:04:25.140Z,100474.37
2018-11-11T18:06:57.683Z,100476.45
2018-11-11T18:09:30.031Z,100471.61
2018-11-11T18:14:57.380Z,100484.28
2018-11-11T18:17:31.054Z,100481.02
2018-11-11T18:20:04.609Z,100490.57
2018-11-11T18:22:39.258Z,100489.75
2018-11-11T18:25:13.370Z,100491.23
2018-11-11T18:27:46.298Z,100497.63
2018-11-11T18:30:23.316Z,100498.33
2018-11-11T18:32:56.544Z,100507.41
2018-11-11T18:35:29.280Z,100503.78
2018-11-11T18:38:01.546Z,100503.72
2018-11-11T18:40:34.238Z,100508.51
2018-11-11T18:43:07.195Z,100509.64
2018-11-11T18:45:40.834Z,100503.84
2018-11-11T18:48:13.245Z,100510.69
2018-11-11T18:50:45.146Z,100511.03
2018-11-11T18:53:17.337Z,100513.73
2018-11-11T18:55:49.351Z,100513.32
2018-11-11T18:58:21.761Z,100526.84
2018-11-11T19:00:52.789Z,100535.64
2018-11-11T19:03:23.638Z,100537.38
2018-11-11T19:05:54.512Z,100526.16
2018-11-11T19:08:26.159Z,100534.92
2018-11-11T19:10:57.082Z,100542.67
2018-11-11T19:13:28.591Z,100541.13
2018-11-11T19:16:01.085Z,100550.55
2018-11-11T19:18:32.065Z,100549.16
2018-11-11T19:21:03.089Z,100546.23
2018-11-11T19:23:34.857Z,100540.16
2018-11-11T19:26:06.693Z,100543.56
2018-11-11T19:28:38.164Z,100554.93
2018-11-11T19:31:09.443Z,100558.55
2018-11-11T19:33:40.731Z,100559.17
2018-11-11T19:36:13.262Z,100562.84
2018-11-11T19:38:45.940Z,100480.21
2018-11-11T19:41:18.840Z,100558.73
2018-11-11T19:43:52.437Z,100567.09
2018-11-11T19:46:24.825Z,100576.97
2018-11-11T19:48:57.296Z,100572.92
2018-11-11T19:51:29.664Z,100576.67
2018-11-11T19:54:02.908Z,100574.17
2018-11-11T19:56:35.046Z,100575.14
2018-11-11T19:59:08.747Z,100578.03
2018-11-11T20:01:41.171Z,100535.39
2018-11-11T20:04:13.678Z,100576.63
2018-11-11T20:06:46.019Z,100575.66
2018-11-11T20:09:18.574Z,100581.09
2018-11-11T20:11:49.756Z,100578.22
2018-11-11T20:14:22.486Z,100578.57
2018-11-11T20:16:54.738Z,100586.23
2018-11-11T20:19:27.748Z,100582.19
2018-11-11T20:22:00.197Z,100577.13
2018-11-11T20:24:32.827Z,100572.03
2018-11-11T20:27:04.917Z,100574.88
2018-11-11T20:29:38.771Z,100577.23
2018-11-11T20:32:11.189Z,100579.37
2018-11-11T20:34:42.966Z,100586.14
2018-11-11T20:37:14.195Z,100585.98
2018-11-11T20:39:46.785Z,100587.09
2018-11-11T20:42:19.073Z,100585.53
2018-11-11T20:44:51.697Z,100590.00
2018-11-11T20:47:23.675Z,100593.89
2018-11-11T20:49:56.104Z,100585.02
2018-11-11T20:52:27.668Z,100599.47
2018-11-11T20:54:58.873Z,100595.65
2018-11-11T20:57:31.505Z,100589.66
2018-11-11T21:00:03.234Z,100600.49
2018-11-11T21:02:34.550Z,100614.67
2018-11-11T21:05:06.011Z,100603.05
2018-11-11T21:07:37.337Z,100599.81
2018-11-11T21:10:10.959Z,100602.25
2018-11-11T21:12:41.725Z,100602.51
2018-11-11T21:15:14.647Z,100588.23
2018-11-11T21:17:45.420Z,100594.34
2018-11-11T21:20:17.074Z,100588.36
2018-11-11T21:22:47.370Z,100582.45
2018-11-11T21:25:17.752Z,100585.17
2018-11-11T21:27:48.718Z,100572.91
2018-11-11T21:30:24.227Z,100564.53
2018-11-11T21:32:54.479Z,100574.77
2018-11-11T21:35:25.094Z,100575.61
2018-11-11T21:37:55.250Z,100580.64
2018-11-11T21:40:26.989Z,100591.67
2018-11-11T21:42:57.472Z,100601.41
2018-11-11T21:45:28.600Z,100611.27
2018-11-11T21:47:58.892Z,100626.76
2018-11-11T21:50:29.498Z,100622.09
2018-11-11T21:53:39.746Z,100622.09
2018-11-11T21:56:10.255Z,100616.45
2018-11-11T21:58:40.215Z,100608.42
2018-11-11T22:01:10.057Z,100610.30
2018-11-11T22:03:40.107Z,100603.36
2018-11-11T22:06:09.917Z,100609.84
2018-11-11T22:08:40.178Z,100615.12
2018-11-11T22:11:10.255Z,100615.09
2018-11-11T22:13:40.122Z,100618.48
2018-11-11T22:16:10.052Z,100620.83
2018-11-11T22:18:40.702Z,100613.39
2018-11-11T22:21:10.710Z,100614.70
2018-11-11T22:23:40.524Z,100606.33
2018-11-11T22:26:10.442Z,100605.39
2018-11-11T22:28:40.843Z,100593.88
2018-11-11T22:31:10.686Z,100594.09
2018-11-11T22:33:40.809Z,100603.00
2018-11-11T22:36:10.639Z,100600.23
2018-11-11T22:38:40.524Z,100601.91
2018-11-11T22:41:11.455Z,100599.13
2018-11-11T22:43:41.252Z,100606.47
2018-11-11T22:46:11.512Z,100607.89
2018-11-11T22:48:41.396Z,100609.81
2018-11-11T22:51:11.293Z,100606.82
2018-11-11T22:53:41.480Z,100613.88
2018-11-11T22:56:14.978Z,100617.98
2018-11-11T22:58:45.047Z,100615.80
2018-11-11T23:01:21.218Z,100610.42
2018-11-11T23:03:51.871Z,100612.95
2018-11-11T23:06:21.885Z,100621.22
2018-11-11T23:08:51.895Z,100632.98
2018-11-11T23:11:21.883Z,100632.16
2018-11-11T23:13:51.715Z,100630.00
2018-11-11T23:16:21.735Z,100632.28
2018-11-11T23:18:51.724Z,100628.91
2018-11-11T23:21:21.626Z,100633.02
2018-11-11T23:23:51.457Z,100643.64
2018-11-11T23:26:21.477Z,100645.34
2018-11-11T23:28:51.434Z,100650.02
2018-11-11T23:31:21.265Z,100656.97
2018-11-11T23:33:51.460Z,100657.47
2018-11-11T23:36:21.463Z,100649.06
2018-11-11T23:38:51.389Z,100647.98
2018-11-11T23:41:21.409Z,100647.98
2018-11-11T23:43:51.240Z,100658.99
2018-11-11T23:46:21.257Z,100657.67
2018-11-11T23:48:51.394Z,100666.55
2018-11-11T23:51:21.585Z,100668.92
2018-11-11T23:53:52.739Z,100670.50
2018-11-11T23:56:22.578Z,100665.94
2018-11-11T23:58:52.472Z,100666.05
